createdAt,value
2022-08-19T00:00:30.147Z,4.18
2022-08-19T00:02:59.359Z,3.55
2022-08-19T00:05:28.596Z,3.05
2022-08-19T00:07:57.854Z,2.63
2022-08-19T00:10:27.197Z,3.00
2022-08-19T00:12:56.407Z,2.72
2022-08-19T00:15:26.291Z,3.30
2022-08-19T00:17:56.517Z,3.20
2022-08-19T00:20:25.957Z,3.10
2022-08-19T00:22:56.785Z,3.17
2022-08-19T00:25:30.254Z,2.72
2022-08-19T00:28:01.186Z,3.17
2022-08-19T00:30:30.573Z,3.00
2022-08-19T00:32:59.978Z,3.05
2022-08-19T00:35:29.516Z,2.83
2022-08-19T00:37:58.631Z,3.20
2022-08-19T00:40:28.509Z,3.03
2022-08-19T00:42:57.943Z,3.28
2022-08-19T00:45:29.983Z,3.28
2022-08-19T00:47:59.276Z,3.17
2022-08-19T00:50:28.287Z,3.40
2022-08-19T00:52:57.666Z,3.13
2022-08-19T00:55:30.679Z,3.15
2022-08-19T00:58:06.805Z,3.33
2022-08-19T01:00:39.049Z,3.08
2022-08-19T01:03:13.693Z,2.90
2022-08-19T01:05:46.316Z,2.90
2022-08-19T01:08:17.979Z,3.47
2022-08-19T01:10:54.732Z,3.30
2022-08-19T01:13:27.993Z,2.85
2022-08-19T01:16:04.985Z,3.03
2022-08-19T01:18:37.480Z,3.38
2022-08-19T01:21:12.953Z,3.20
2022-08-19T01:23:44.884Z,2.92
2022-08-19T01:26:19.703Z,3.15
2022-08-19T01:28:52.229Z,3.20
2022-08-19T01:31:28.347Z,3.00
2022-08-19T01:33:59.870Z,3.67
2022-08-19T01:36:33.500Z,3.42
2022-08-19T01:39:05.679Z,2.78
2022-08-19T01:41:35.062Z,3.22
2022-08-19T01:44:18.871Z,3.15
2022-08-19T01:46:51.230Z,3.47
2022-08-19T01:49:23.323Z,3.13
2022-08-19T01:51:53.260Z,3.15
2022-08-19T01:54:27.786Z,4.13
2022-08-19T01:57:05.913Z,3.28
2022-08-19T01:59:37.748Z,2.88
2022-08-19T02:02:09.618Z,3.15
2022-08-19T02:04:42.255Z,3.17
2022-08-19T02:10:17.968Z,3.05
2022-08-19T02:12:47.636Z,3.28
2022-08-19T02:15:17.020Z,3.10
2022-08-19T02:17:46.149Z,3.35
2022-08-19T02:20:15.611Z,3.20
2022-08-19T02:22:46.048Z,3.28
2022-08-19T02:25:16.476Z,3.13
2022-08-19T02:27:45.723Z,3.17
2022-08-19T02:30:18.336Z,3.67
2022-08-19T02:32:47.761Z,3.25
2022-08-19T02:35:16.768Z,3.38
2022-08-19T02:38:05.141Z,2.97
2022-08-19T02:40:37.835Z,2.92
2022-08-19T02:43:09.394Z,2.88
2022-08-19T02:45:41.663Z,3.15
2022-08-19T02:48:14.925Z,3.35
2022-08-19T02:50:56.951Z,3.30
2022-08-19T02:53:30.030Z,3.00
2022-08-19T02:55:59.526Z,3.30
2022-08-19T02:58:28.642Z,3.20
2022-08-19T03:00:59.391Z,3.15
2022-08-19T03:03:28.985Z,3.30
2022-08-19T03:06:19.603Z,3.42
2022-08-19T03:08:51.482Z,2.95
2022-08-19T03:11:34.300Z,3.25
2022-08-19T03:14:19.814Z,3.33
2022-08-19T03:17:18.536Z,3.15
2022-08-19T03:19:52.847Z,3.30
2022-08-19T03:22:38.990Z,3.33
2022-08-19T03:25:08.404Z,3.10
2022-08-19T03:27:40.309Z,3.10
2022-08-19T03:30:11.686Z,3.15
2022-08-19T03:32:45.282Z,3.45
2022-08-19T03:35:14.783Z,3.40
2022-08-19T03:37:44.447Z,3.80
2022-08-19T03:40:23.781Z,3.58
2022-08-19T03:42:53.697Z,3.10
2022-08-19T03:45:28.674Z,3.70
2022-08-19T03:48:01.503Z,3.42
2022-08-19T03:50:31.271Z,3.70
2022-08-19T03:53:02.926Z,3.30
2022-08-19T03:55:38.917Z,3.60
2022-08-19T03:58:14.184Z,3.83
2022-08-19T04:00:59.157Z,3.35
2022-08-19T04:03:33.601Z,3.60
2022-08-19T04:06:26.313Z,3.63
2022-08-19T04:09:04.637Z,3.80
2022-08-19T04:11:48.887Z,3.85
2022-08-19T04:14:25.092Z,3.53
2022-08-19T04:17:03.104Z,3.53
2022-08-19T04:19:43.407Z,4.13
2022-08-19T04:22:13.464Z,4.30
2022-08-19T04:24:44.137Z,3.58
2022-08-19T04:27:14.699Z,3.72
2022-08-19T04:29:51.838Z,3.75
2022-08-19T04:32:29.244Z,3.45
2022-08-19T04:35:32.622Z,3.53
2022-08-19T04:38:29.214Z,2.95
2022-08-19T04:41:20.260Z,3.38
2022-08-19T04:43:53.022Z,3.20
2022-08-19T04:46:40.592Z,4.07
2022-08-19T04:49:18.710Z,3.70
2022-08-19T04:51:53.128Z,3.47
2022-08-19T04:54:37.402Z,3.63
2022-08-19T04:57:11.663Z,3.28
2022-08-19T04:59:41.575Z,3.38
2022-08-19T05:02:11.953Z,3.33
2022-08-19T05:04:41.335Z,3.05
2022-08-19T05:07:11.898Z,3.20
2022-08-19T05:09:57.026Z,3.30
2022-08-19T05:12:30.555Z,3.88
2022-08-19T05:15:00.972Z,3.38
2022-08-19T05:17:33.535Z,3.53
2022-08-19T05:20:25.870Z,3.30
2022-08-19T05:22:55.460Z,3.58
2022-08-19T05:25:27.453Z,3.20
2022-08-19T05:27:56.745Z,3.20
2022-08-19T05:30:37.620Z,3.25
2022-08-19T05:33:15.084Z,3.33
2022-08-19T05:35:44.151Z,3.67
2022-08-19T05:38:13.682Z,3.28
2022-08-19T05:40:43.285Z,3.60
2022-08-19T05:43:12.835Z,3.30
2022-08-19T05:45:43.845Z,3.63
2022-08-19T05:48:14.606Z,3.47
2022-08-19T05:50:44.079Z,3.50
2022-08-19T05:53:14.150Z,3.30
2022-08-19T05:55:43.171Z,3.33
2022-08-19T05:58:12.337Z,3.72
2022-08-19T06:00:42.069Z,3.47
2022-08-19T06:03:14.600Z,3.33
2022-08-19T06:05:51.532Z,3.70
2022-08-19T06:08:34.393Z,3.42
2022-08-19T06:11:18.250Z,2.75
2022-08-19T06:13:59.741Z,3.17
2022-08-19T06:16:30.306Z,3.33
2022-08-19T06:19:02.890Z,3.13
2022-08-19T06:21:32.819Z,3.83
2022-08-19T06:24:02.106Z,3.13
2022-08-19T06:26:34.656Z,3.47
2022-08-19T06:29:05.776Z,3.10
2022-08-19T06:31:37.009Z,3.33
2022-08-19T06:34:08.547Z,3.53
2022-08-19T06:36:43.833Z,3.40
2022-08-19T06:39:34.659Z,3.60
2022-08-19T06:42:09.126Z,4.05
2022-08-19T06:44:48.128Z,3.08
2022-08-19T06:47:25.271Z,3.20
2022-08-19T06:50:05.325Z,3.15
2022-08-19T06:52:38.351Z,3.45
2022-08-19T06:55:08.658Z,3.35
2022-08-19T06:57:38.064Z,3.13
2022-08-19T07:00:13.028Z,3.20
2022-08-19T07:02:48.200Z,3.60
2022-08-19T07:05:25.078Z,3.55
2022-08-19T07:07:54.280Z,3.40
2022-08-19T07:10:27.523Z,3.42
2022-08-19T07:12:56.584Z,3.22
2022-08-19T07:15:29.015Z,3.75
2022-08-19T07:17:58.339Z,3.47
2022-08-19T07:20:28.353Z,3.60
2022-08-19T07:22:58.063Z,3.80
2022-08-19T07:25:32.222Z,3.78
2022-08-19T07:28:02.444Z,3.60
2022-08-19T07:30:32.039Z,3.78
2022-08-19T07:33:03.885Z,3.67
2022-08-19T07:35:34.035Z,3.53
2022-08-19T07:38:04.967Z,3.95
2022-08-19T07:40:34.160Z,3.83
2022-08-19T07:43:03.345Z,3.10
2022-08-19T07:45:35.298Z,3.80
2022-08-19T07:48:05.925Z,3.85
2022-08-19T07:50:35.533Z,4.03
2022-08-19T07:53:04.750Z,3.92
2022-08-19T07:55:42.171Z,3.15
2022-08-19T07:58:16.084Z,3.90
2022-08-19T08:00:56.153Z,3.47
2022-08-19T08:03:44.655Z,3.28
2022-08-19T08:06:34.126Z,3.70
2022-08-19T08:09:13.217Z,3.60
2022-08-19T08:12:01.992Z,3.90
2022-08-19T08:14:44.004Z,3.55
2022-08-19T08:17:16.870Z,3.50
2022-08-19T08:20:01.498Z,3.70
2022-08-19T08:22:49.840Z,4.07
2022-08-19T08:25:24.432Z,3.92
2022-08-19T08:27:55.327Z,4.07
2022-08-19T08:30:27.420Z,3.70
2022-08-19T08:33:02.528Z,3.80
2022-08-19T08:35:32.038Z,3.72
2022-08-19T08:38:01.276Z,3.53
2022-08-19T08:40:40.285Z,3.88
2022-08-19T08:43:34.545Z,3.17
2022-08-19T08:46:12.280Z,4.00
2022-08-19T08:48:52.607Z,3.60
2022-08-19T08:51:34.546Z,4.18
2022-08-19T08:54:09.875Z,3.83
2022-08-19T08:56:45.304Z,4.22
2022-08-19T08:59:34.433Z,3.95
2022-08-19T09:02:03.752Z,3.80
2022-08-19T09:04:33.055Z,4.40
2022-08-19T09:07:39.806Z,4.20
2022-08-19T09:10:34.781Z,3.83
2022-08-19T09:13:28.105Z,3.80
2022-08-19T09:16:16.888Z,3.95
2022-08-19T09:21:22.929Z,4.10
2022-08-19T09:23:55.676Z,4.50
2022-08-19T09:26:47.515Z,3.92
2022-08-19T09:29:17.718Z,4.10
2022-08-19T09:31:46.861Z,3.92
2022-08-19T09:34:21.566Z,4.45
2022-08-19T09:36:56.997Z,4.25
2022-08-19T09:39:26.219Z,4.30
2022-08-19T09:42:06.625Z,4.07
2022-08-19T09:44:46.261Z,4.20
2022-08-19T09:47:17.130Z,3.97
2022-08-19T09:49:50.765Z,4.50
2022-08-19T09:52:19.967Z,3.92
2022-08-19T09:54:51.883Z,4.75
2022-08-19T09:57:21.207Z,5.95
2022-08-19T09:59:50.441Z,4.30
2022-08-19T10:02:22.426Z,4.25
2022-08-19T10:05:09.846Z,4.45
2022-08-19T10:07:39.747Z,4.00
2022-08-19T10:10:11.210Z,4.13
2022-08-19T10:12:41.827Z,3.90
2022-08-19T10:15:11.413Z,4.45
2022-08-19T10:17:40.738Z,3.63
2022-08-19T10:20:17.325Z,4.07
2022-08-19T10:22:46.383Z,4.43
2022-08-19T10:25:21.070Z,3.88
2022-08-19T10:27:51.380Z,4.25
2022-08-19T10:30:20.974Z,4.20
2022-08-19T10:32:50.258Z,4.80
2022-08-19T10:35:22.108Z,4.53
2022-08-19T10:37:57.256Z,3.83
2022-08-19T10:40:28.645Z,4.60
2022-08-19T10:42:58.443Z,4.50
2022-08-19T10:45:28.461Z,4.70
2022-08-19T10:47:58.172Z,4.38
2022-08-19T10:50:45.985Z,4.50
2022-08-19T10:53:15.485Z,4.65
2022-08-19T10:56:04.991Z,4.57
2022-08-19T10:58:34.282Z,4.25
2022-08-19T11:01:03.462Z,4.82
2022-08-19T11:03:32.925Z,4.47
2022-08-19T11:06:09.693Z,4.38
2022-08-19T11:08:39.475Z,4.32
2022-08-19T11:11:10.300Z,4.40
2022-08-19T11:13:41.309Z,5.13
2022-08-19T11:16:15.189Z,4.78
2022-08-19T11:18:50.808Z,4.18
2022-08-19T11:21:22.034Z,4.65
2022-08-19T11:23:54.024Z,5.15
2022-08-19T11:26:25.467Z,4.70
2022-08-19T11:28:56.391Z,4.60
2022-08-19T11:31:29.495Z,4.97
2022-08-19T11:34:01.432Z,4.78
2022-08-19T11:36:31.423Z,4.82
2022-08-19T11:39:01.071Z,4.63
2022-08-19T11:41:30.284Z,5.32
2022-08-19T11:43:59.374Z,4.88
2022-08-19T11:46:32.265Z,5.40
2022-08-19T11:49:02.618Z,5.32
2022-08-19T11:51:32.340Z,5.35
2022-08-19T11:54:02.446Z,4.82
2022-08-19T11:56:31.716Z,5.32
2022-08-19T11:59:02.552Z,5.38
2022-08-19T12:01:33.233Z,4.95
2022-08-19T12:04:02.920Z,4.88
2022-08-19T12:06:35.794Z,4.28
2022-08-19T12:09:10.479Z,4.88
2022-08-19T12:11:40.795Z,4.85
2022-08-19T12:14:14.555Z,4.53
2022-08-19T12:16:51.400Z,5.05
2022-08-19T12:19:22.806Z,4.55
2022-08-19T12:21:52.744Z,4.47
2022-08-19T12:24:24.873Z,4.55
2022-08-19T12:26:55.301Z,4.82
2022-08-19T12:29:31.243Z,4.78
2022-08-19T12:32:04.089Z,4.10
2022-08-19T12:34:34.847Z,5.03
2022-08-19T12:37:06.345Z,4.47
2022-08-19T12:39:44.110Z,5.10
2022-08-19T12:42:15.560Z,5.32
2022-08-19T12:44:46.003Z,5.18
2022-08-19T12:47:15.720Z,4.88
2022-08-19T12:49:53.261Z,5.10
2022-08-19T12:52:28.888Z,5.32
2022-08-19T12:54:59.040Z,5.03
2022-08-19T12:57:31.819Z,5.47
2022-08-19T13:00:05.265Z,4.60
2022-08-19T13:02:38.812Z,4.13
2022-08-19T13:05:10.721Z,3.95
2022-08-19T13:07:41.972Z,3.83
2022-08-19T13:10:14.201Z,3.60
2022-08-19T13:12:44.591Z,3.97
2022-08-19T13:15:19.352Z,3.45
2022-08-19T13:17:52.229Z,3.47
2022-08-19T13:20:22.690Z,2.95
2022-08-19T13:22:52.254Z,3.03
2022-08-19T13:25:21.693Z,2.95
2022-08-19T13:27:52.766Z,3.08
2022-08-19T13:30:41.374Z,2.65
2022-08-19T13:33:15.530Z,3.00
2022-08-19T13:35:52.622Z,2.88
2022-08-19T13:38:24.097Z,2.40
2022-08-19T13:40:55.403Z,2.90
2022-08-19T13:43:28.056Z,3.10
2022-08-19T13:45:57.976Z,2.70
2022-08-19T13:48:29.521Z,2.97
2022-08-19T13:50:59.020Z,3.10
2022-08-19T13:53:28.154Z,2.80
2022-08-19T13:55:57.180Z,2.80
2022-08-19T13:58:26.313Z,2.63
2022-08-19T14:00:55.349Z,3.10
2022-08-19T14:03:25.451Z,2.80
2022-08-19T14:05:54.610Z,2.67
2022-08-19T14:08:23.552Z,2.75
2022-08-19T14:10:52.830Z,2.78
2022-08-19T14:13:24.056Z,3.05
2022-08-19T14:15:54.906Z,2.63
2022-08-19T14:18:24.032Z,2.30
2022-08-19T14:20:58.905Z,2.22
2022-08-19T14:23:28.299Z,2.53
2022-08-19T14:26:09.854Z,2.50
2022-08-19T14:28:39.060Z,2.50
2022-08-19T14:31:08.032Z,2.08
2022-08-19T14:33:37.320Z,2.60
2022-08-19T14:36:07.203Z,2.55
2022-08-19T14:38:36.728Z,2.25
2022-08-19T14:41:13.394Z,2.15
2022-08-19T14:43:44.059Z,2.05
2022-08-19T14:46:14.454Z,1.83
2022-08-19T14:48:46.263Z,1.88
2022-08-19T14:51:26.352Z,1.80
2022-08-19T14:53:55.671Z,2.15
2022-08-19T14:56:28.534Z,1.90
2022-08-19T14:59:01.018Z,1.75
2022-08-19T15:01:30.360Z,1.90
2022-08-19T15:03:59.372Z,1.98
2022-08-19T15:06:30.938Z,2.15
2022-08-19T15:09:04.153Z,1.60
2022-08-19T15:11:34.616Z,1.42
2022-08-19T15:14:03.870Z,1.58
2022-08-19T15:16:33.099Z,1.45
2022-08-19T15:19:02.529Z,1.60
2022-08-19T15:21:32.074Z,1.40
2022-08-19T15:24:02.895Z,1.50
2022-08-19T15:26:34.149Z,1.90
2022-08-19T15:29:05.386Z,1.60
2022-08-19T15:31:38.233Z,2.38
2022-08-19T15:34:08.772Z,1.60
2022-08-19T15:36:38.090Z,1.80
2022-08-19T15:39:08.292Z,1.95
2022-08-19T15:41:38.151Z,2.17
2022-08-19T15:44:14.158Z,2.35
2022-08-19T15:46:46.282Z,1.80
2022-08-19T15:49:18.099Z,2.00
2022-08-19T15:51:50.291Z,2.28
2022-08-19T15:54:22.870Z,2.10
2022-08-19T15:57:11.155Z,1.98
2022-08-19T16:00:02.554Z,2.50
2022-08-19T16:02:53.763Z,2.38
2022-08-19T16:05:44.843Z,2.15
2022-08-19T16:08:14.286Z,2.17
2022-08-19T16:10:43.355Z,2.40
2022-08-19T16:13:12.728Z,2.28
2022-08-19T16:15:44.080Z,2.30
2022-08-19T16:18:13.429Z,1.83
2022-08-19T16:20:42.587Z,1.85
2022-08-19T16:23:11.954Z,2.10
2022-08-19T16:25:41.119Z,1.73
2022-08-19T16:28:11.292Z,2.15
2022-08-19T16:30:42.257Z,1.90
2022-08-19T16:33:22.785Z,1.52
2022-08-19T16:35:58.442Z,1.90
2022-08-19T16:38:34.611Z,1.83
2022-08-19T16:41:04.013Z,1.70
2022-08-19T16:43:33.515Z,1.77
2022-08-19T16:46:03.329Z,1.85
2022-08-19T16:48:33.728Z,1.90
2022-08-19T16:51:10.144Z,1.58
2022-08-19T16:53:42.000Z,1.70
2022-08-19T16:56:11.729Z,1.83
2022-08-19T16:58:40.989Z,1.63
2022-08-19T17:01:12.246Z,1.77
2022-08-19T17:03:42.146Z,1.77
2022-08-19T17:06:20.462Z,1.63
2022-08-19T17:08:51.795Z,2.30
2022-08-19T17:11:22.981Z,1.60
2022-08-19T17:13:52.212Z,1.80
2022-08-19T17:16:25.595Z,1.90
2022-08-19T17:18:57.242Z,1.98
2022-08-19T17:21:32.896Z,1.88
2022-08-19T17:24:03.462Z,1.92
2022-08-19T17:26:32.944Z,2.90
2022-08-19T17:29:02.204Z,2.20
2022-08-19T17:31:32.748Z,2.53
2022-08-19T17:34:03.623Z,1.70
2022-08-19T17:36:34.850Z,1.92
2022-08-19T17:39:06.022Z,1.70
2022-08-19T17:41:35.896Z,2.22
2022-08-19T17:44:05.817Z,2.33
2022-08-19T17:46:35.044Z,2.30
2022-08-19T17:49:04.340Z,2.08
2022-08-19T17:51:46.878Z,1.80
2022-08-19T17:54:19.550Z,2.30
2022-08-19T17:56:52.204Z,2.13
2022-08-19T17:59:21.638Z,2.08
2022-08-19T18:01:58.321Z,1.90
2022-08-19T18:04:30.648Z,2.33
2022-08-19T18:07:05.275Z,2.17
2022-08-19T18:09:41.250Z,2.00
2022-08-19T18:12:18.874Z,1.95
2022-08-19T18:14:48.926Z,1.73
2022-08-19T18:17:20.342Z,2.53
2022-08-19T18:19:50.113Z,2.40
2022-08-19T18:22:42.933Z,1.98
2022-08-19T18:25:27.182Z,2.08
2022-08-19T18:28:00.081Z,2.00
2022-08-19T18:30:35.202Z,2.10
2022-08-19T18:33:15.362Z,2.50
2022-08-19T18:35:47.667Z,2.13
2022-08-19T18:38:37.680Z,2.10
2022-08-19T18:41:27.197Z,2.15
2022-08-19T18:44:16.398Z,2.38
2022-08-19T18:47:03.874Z,2.28
2022-08-19T18:49:37.928Z,2.42
2022-08-19T18:52:07.385Z,2.50
2022-08-19T18:54:37.737Z,2.30
2022-08-19T18:57:09.910Z,2.10
2022-08-19T18:59:44.109Z,2.20
2022-08-19T19:02:16.043Z,2.20
2022-08-19T19:04:47.216Z,2.40
2022-08-19T19:07:21.664Z,2.25
2022-08-19T19:09:52.304Z,2.35
2022-08-19T19:12:22.535Z,2.50
2022-08-19T19:14:51.808Z,2.65
2022-08-19T19:17:27.029Z,2.60
2022-08-19T19:19:56.372Z,2.53
2022-08-19T19:22:26.657Z,2.72
2022-08-19T19:24:56.391Z,2.13
2022-08-19T19:27:25.811Z,2.30
2022-08-19T19:29:55.492Z,2.50
2022-08-19T19:32:29.499Z,2.60
2022-08-19T19:35:02.119Z,2.47
2022-08-19T19:37:31.309Z,2.67
2022-08-19T19:40:00.413Z,2.20
2022-08-19T19:42:29.755Z,2.58
2022-08-19T19:44:59.547Z,2.75
2022-08-19T19:47:29.363Z,2.45
2022-08-19T19:50:13.903Z,2.55
2022-08-19T19:52:49.535Z,2.58
2022-08-19T19:55:19.488Z,2.47
2022-08-19T19:57:50.206Z,2.60
2022-08-19T20:00:20.661Z,1.98
2022-08-19T20:02:51.133Z,2.15
2022-08-19T20:05:24.515Z,3.08
2022-08-19T20:08:13.469Z,3.00
2022-08-19T20:10:44.932Z,2.63
2022-08-19T20:13:16.343Z,2.42
2022-08-19T20:15:45.607Z,2.17
2022-08-19T20:18:15.487Z,1.95
2022-08-19T20:20:47.188Z,2.47
2022-08-19T20:23:16.416Z,2.10
2022-08-19T20:25:45.503Z,2.13
2022-08-19T20:28:14.673Z,2.08
2022-08-19T20:30:46.727Z,2.08
2022-08-19T20:33:17.571Z,2.25
2022-08-19T20:35:47.265Z,2.85
2022-08-19T20:38:16.561Z,2.88
2022-08-19T20:40:45.701Z,3.58
2022-08-19T20:43:15.236Z,2.20
2022-08-19T20:45:44.366Z,1.92
2022-08-19T20:48:14.424Z,2.45
2022-08-19T20:50:43.589Z,1.92
2022-08-19T20:53:18.606Z,1.95
2022-08-19T20:55:52.307Z,1.85
2022-08-19T20:58:24.524Z,2.00
2022-08-19T21:00:58.750Z,1.83
2022-08-19T21:03:30.981Z,1.90
2022-08-19T21:06:03.625Z,2.15
2022-08-19T21:08:35.894Z,1.80
2022-08-19T21:11:07.467Z,2.22
2022-08-19T21:13:36.737Z,1.67
2022-08-19T21:16:09.177Z,2.28
2022-08-19T21:18:39.731Z,1.70
2022-08-19T21:21:08.991Z,2.33
2022-08-19T21:23:38.085Z,1.92
2022-08-19T21:26:07.233Z,1.73
2022-08-19T21:28:36.800Z,1.70
2022-08-19T21:31:07.959Z,1.67
2022-08-19T21:33:37.705Z,1.65
2022-08-19T21:36:07.343Z,1.40
2022-08-19T21:38:36.753Z,2.42
2022-08-19T21:41:07.207Z,1.50
2022-08-19T21:43:38.644Z,1.60
2022-08-19T21:46:09.794Z,1.95
2022-08-19T21:48:42.811Z,1.90
2022-08-19T21:51:11.865Z,1.92
2022-08-19T21:53:40.875Z,1.70
2022-08-19T21:56:13.790Z,1.90
2022-08-19T21:58:43.043Z,2.13
2022-08-19T22:01:12.883Z,1.90
2022-08-19T22:03:42.126Z,1.80
2022-08-19T22:06:11.897Z,2.10
2022-08-19T22:08:42.461Z,2.17
2022-08-19T22:11:13.521Z,2.00
2022-08-19T22:13:42.937Z,1.92
2022-08-19T22:16:15.268Z,1.95
2022-08-19T22:18:45.318Z,1.75
2022-08-19T22:21:15.918Z,1.75
2022-08-19T22:23:59.572Z,2.13
2022-08-19T22:26:33.434Z,2.00
2022-08-19T22:29:02.601Z,1.67
2022-08-19T22:31:33.885Z,1.85
2022-08-19T22:34:04.574Z,1.83
2022-08-19T22:36:34.080Z,1.83
2022-08-19T22:39:04.906Z,1.70
2022-08-19T22:41:34.856Z,1.45
2022-08-19T22:44:04.765Z,1.67
2022-08-19T22:46:35.102Z,1.80
2022-08-19T22:49:04.435Z,1.38
2022-08-19T22:51:51.705Z,1.67
2022-08-19T22:54:20.923Z,1.67
2022-08-19T22:56:52.649Z,1.70
2022-08-19T22:59:21.900Z,2.10
2022-08-19T23:01:51.120Z,1.70
2022-08-19T23:04:20.167Z,1.67
2022-08-19T23:06:49.268Z,2.13
2022-08-19T23:09:18.222Z,1.83
2022-08-19T23:11:52.723Z,1.95
2022-08-19T23:14:21.846Z,1.75
2022-08-19T23:16:51.531Z,1.55
2022-08-19T23:19:21.924Z,1.55
2022-08-19T23:21:51.101Z,1.73
2022-08-19T23:24:20.442Z,1.90
2022-08-19T23:27:07.812Z,1.90
2022-08-19T23:29:55.237Z,2.00
2022-08-19T23:32:26.373Z,1.75
2022-08-19T23:34:57.923Z,1.52
2022-08-19T23:37:29.054Z,1.77
2022-08-19T23:39:58.099Z,1.90
2022-08-19T23:42:27.252Z,2.00
2022-08-19T23:45:05.810Z,1.90
2022-08-19T23:47:36.090Z,1.77
2022-08-19T23:50:10.842Z,1.83
2022-08-19T23:53:05.667Z,1.88
2022-08-19T23:55:38.844Z,2.17
2022-08-19T23:58:09.078Z,1.98
